Time;durP1;ratioP1;P1;durP2;ratioP2;P2;SDS_P1;SDS_P2;PMS_P1;PMS_P2;Temp;Humidity;BMP_temperature;BMP_pressure;BME280_temperature;BME280_humidity;BME280_pressure;Samples;Min_cycle;Max_cycle;Signal;HPM_P1;HPM_P2
2022/11/28 00:12:43;;;;;;;66.97;15.80;;;;;;;9.49;nan;100828.22;31568186;28;20056;-71
2022/11/28 00:27:45;;;;;;;70.57;15.40;;;;;;;9.55;nan;100820.47;31591397;28;20106;-70
2022/11/28 00:42:47;;;;;;;75.77;17.50;;;;;;;9.84;nan;100838.16;31593401;28;20048;-71
2022/11/28 00:57:49;;;;;;;79.40;16.90;;;;;;;9.99;nan;100833.41;31561400;28;20060;-70
2022/11/28 01:12:51;;;;;;;75.60;16.80;;;;;;;9.91;nan;100837.34;31589159;28;20052;-70
2022/11/28 01:27:53;;;;;;;63.40;14.60;;;;;;;10.14;nan;100848.47;31632903;28;20063;-71
2022/11/28 01:42:56;;;;;;;75.17;16.23;;;;;;;10.33;nan;100863.50;31612073;28;20052;-71
2022/11/28 01:57:58;;;;;;;65.93;12.73;;;;;;;9.97;nan;100870.25;31607082;28;20055;-71
2022/11/28 02:13:09;;;;;;;64.23;13.07;;;;;;;10.18;nan;100867.41;31595703;28;20516;-71
2022/11/28 02:28:17;;;;;;;53.27;14.47;;;;;;;10.37;nan;100863.47;31603337;28;20056;-70
2022/11/28 08:43:15;;;;;;;43.27;9.77;;;;;;;-144.18;100.00;69644.63;31276089;28;20506;-76
2022/11/28 08:58:17;;;;;;;54.80;10.83;;;;;;;-144.18;100.00;69644.63;31335330;28;20049;-75
2022/11/28 09:29:45;;;;;;;57.57;11.27;;;;;;;-144.18;100.00;69644.63;31333012;28;20178;-74
2022/11/28 09:44:55;;;;;;;53.33;12.90;;;;;;;-144.18;100.00;69644.63;31362384;28;20071;-76
2022/11/28 09:59:57;;;;;;;44.53;11.10;;;;;;;-144.18;100.00;69644.63;31368017;28;20048;-73
2022/11/28 10:15:09;;;;;;;46.97;11.03;;;;;;;-144.18;100.00;69644.63;31360664;28;20083;-74
2022/11/28 10:30:22;;;;;;;70.90;11.33;;;;;;;-144.18;100.00;69644.63;31347230;28;20045;-75
2022/11/28 10:45:27;;;;;;;65.10;13.30;;;;;;;-144.18;100.00;69644.63;31336030;28;20101;-75
2022/11/28 11:00:30;;;;;;;61.30;12.73;;;;;;;-144.18;100.00;69644.63;31347316;28;20049;-74
2022/11/28 11:15:34;;;;;;;77.80;13.67;;;;;;;-144.18;100.00;69644.63;31364627;28;20087;-76
2022/11/28 11:30:41;;;;;;;60.83;13.37;;;;;;;-144.18;100.00;69644.63;31355515;28;20049;-75
2022/11/28 11:45:43;;;;;;;69.70;13.97;;;;;;;-144.18;100.00;69644.63;31317226;28;20088;-75
2022/11/28 12:00:56;;;;;;;76.67;14.20;;;;;;;-144.18;100.00;69644.63;31331574;28;20466;-76
2022/11/28 12:16:29;;;;;;;76.77;15.67;;;;;;;-144.18;100.00;69644.63;31353601;28;20376;-77
2022/11/28 12:32:00;;;;;;;84.60;20.13;;;;;;;-144.18;100.00;69644.63;31331988;28;20508;-75
2022/11/28 12:47:14;;;;;;;72.93;15.03;;;;;;;-144.18;100.00;69644.63;31358047;28;20057;-78
2022/11/28 13:02:35;;;;;;;60.77;14.10;;;;;;;-144.18;100.00;69644.63;31331566;28;20048;-74
2022/11/28 13:17:52;;;;;;;94.90;19.43;;;;;;;-144.18;100.00;69644.63;31351426;28;20045;-77
2022/11/28 13:33:35;;;;;;;66.43;18.03;;;;;;;-144.18;100.00;69644.63;31373935;28;20087;-74
2022/11/28 13:48:38;;;;;;;77.70;17.07;;;;;;;-144.18;100.00;69644.63;31355962;28;20115;-75
2022/11/28 14:04:14;;;;;;;70.60;16.43;;;;;;;-144.18;100.00;69644.63;31354808;28;20050;-77
2022/11/28 14:19:39;;;;;;;60.60;16.03;;;;;;;-144.18;100.00;69644.63;31347085;28;20104;-76
2022/11/28 14:34:44;;;;;;;68.13;15.33;;;;;;;-144.18;100.00;69644.63;31361851;28;20187;-81
2022/11/28 14:49:48;;;;;;;77.30;16.03;;;;;;;-144.18;100.00;69644.63;31352702;28;20056;-79
2022/11/28 15:05:26;;;;;;;67.90;15.80;;;;;;;-144.18;100.00;69644.63;31361921;28;20075;-81
2022/11/28 15:20:39;;;;;;;55.30;14.53;;;;;;;-144.18;100.00;69644.63;31356799;28;20049;-85
2022/11/28 15:36:11;;;;;;;78.77;17.43;;;;;;;-144.18;100.00;69644.63;31336647;28;20057;-83
2022/11/28 15:51:34;;;;;;;88.80;16.97;;;;;;;-144.18;100.00;69644.63;31311613;28;20053;-81
2022/11/28 16:06:42;;;;;;;114.77;18.83;;;;;;;-144.18;100.00;69644.63;31338382;28;20493;-76
2022/11/28 16:22:00;;;;;;;84.93;17.07;;;;;;;-144.18;100.00;69644.63;31523261;22;20049;-81
2022/11/28 16:37:10;;;;;;;98.07;21.83;;;;;;;-144.18;100.00;69644.63;31231734;28;20144;-76
2022/11/28 16:52:32;;;;;;;91.87;19.97;;;;;;;-144.18;100.00;69644.63;31233460;28;20046;-75
2022/11/28 17:07:34;;;;;;;103.73;21.30;;;;;;;-144.18;100.00;69644.63;31222529;28;20049;-76
2022/11/28 17:22:40;;;;;;;96.17;19.40;;;;;;;-144.18;100.00;69644.63;31199462;28;20046;-75
2022/11/28 17:37:43;;;;;;;123.73;22.23;;;;;;;-144.18;100.00;69644.63;31203974;28;20141;-76
2022/11/28 17:52:45;;;;;;;90.43;19.60;;;;;;;-144.18;100.00;69644.63;31216581;28;20378;-74
2022/11/28 18:07:48;;;;;;;123.97;23.63;;;;;;;-144.18;100.00;69644.63;31237861;28;20189;-75
2022/11/28 18:22:50;;;;;;;89.90;22.43;;;;;;;-144.18;100.00;69644.63;31224032;28;20085;-74
2022/11/28 18:37:55;;;;;;;91.77;19.90;;;;;;;-144.18;100.00;69644.63;31209662;28;20045;-76
2022/11/28 18:52:57;;;;;;;104.90;23.33;;;;;;;-144.18;100.00;69644.63;31228503;28;20390;-76
2022/11/28 19:07:59;;;;;;;88.03;18.27;;;;;;;-144.18;100.00;69644.63;31198533;28;20104;-76
2022/11/28 19:23:01;;;;;;;79.43;19.70;;;;;;;-144.18;100.00;69644.63;31170645;28;20137;-71
2022/11/28 19:38:03;;;;;;;94.30;20.90;;;;;;;-144.18;100.00;69644.63;31198209;28;20057;-72
2022/11/28 19:53:05;;;;;;;99.67;21.17;;;;;;;-144.18;100.00;69644.63;31203962;28;20049;-72
2022/11/28 20:08:07;;;;;;;109.27;23.37;;;;;;;-144.18;100.00;69644.63;31169236;28;20136;-75
2022/11/28 20:23:09;;;;;;;90.53;23.20;;;;;;;-144.18;100.00;69644.63;31196120;28;20052;-72
2022/11/28 20:38:13;;;;;;;118.30;27.87;;;;;;;-144.18;100.00;69644.63;31172297;28;20050;-73
2022/11/28 20:53:15;;;;;;;115.97;22.90;;;;;;;-144.18;100.00;69644.63;31203977;28;20065;-71
2022/11/28 21:08:16;;;;;;;97.73;25.53;;;;;;;-144.18;100.00;69644.63;31198981;28;20125;-71
2022/11/28 21:23:18;;;;;;;91.83;20.80;;;;;;;-144.18;100.00;69644.63;31204350;28;20400;-74
2022/11/28 21:38:20;;;;;;;97.63;20.60;;;;;;;-144.18;100.00;69644.63;31200429;28;20054;-74
2022/11/28 21:53:22;;;;;;;87.07;18.93;;;;;;;-144.18;100.00;69644.63;31182783;28;20080;-74
2022/11/28 22:08:24;;;;;;;65.80;17.40;;;;;;;-144.18;100.00;69644.63;31195632;28;20061;-71
2022/11/28 22:23:26;;;;;;;62.87;16.90;;;;;;;-144.18;100.00;69644.63;31208679;28;20057;-71
2022/11/28 22:38:28;;;;;;;56.07;16.60;;;;;;;-144.18;100.00;69644.63;31207065;28;20069;-75
2022/11/28 22:53:29;;;;;;;59.50;16.17;;;;;;;-144.18;100.00;69644.63;31231765;28;20041;-76
2022/11/28 23:08:32;;;;;;;44.60;14.47;;;;;;;-144.18;100.00;69644.63;31225579;28;20049;-76
2022/11/28 23:23:34;;;;;;;53.23;15.23;;;;;;;-144.18;100.00;69644.63;31245202;28;20068;-75
2022/11/28 23:38:36;;;;;;;51.47;14.63;;;;;;;-144.18;100.00;69644.63;31221128;28;20522;-76
2022/11/28 23:53:39;;;;;;;55.50;14.97;;;;;;;-144.18;100.00;69644.63;31220876;28;20041;-75
